createdAt,value
2022-10-01T00:01:21.388Z,10.65
2022-10-01T00:04:24.682Z,10.59
2022-10-01T00:07:27.491Z,10.63
2022-10-01T00:10:30.291Z,10.63
2022-10-01T00:13:33.179Z,10.61
2022-10-01T00:16:35.275Z,10.62
2022-10-01T00:19:37.616Z,10.58
2022-10-01T00:22:40.125Z,10.53
2022-10-01T00:25:43.631Z,10.52
2022-10-01T00:28:47.479Z,10.50
2022-10-01T00:31:50.042Z,10.53
2022-10-01T00:34:53.717Z,10.56
2022-10-01T00:37:56.012Z,10.49
2022-10-01T00:40:58.617Z,10.37
2022-10-01T00:44:32.171Z,10.39
2022-10-01T00:47:41.031Z,10.40
2022-10-01T00:50:43.715Z,10.43
2022-10-01T00:53:46.347Z,10.45
2022-10-01T00:56:51.661Z,10.42
2022-10-01T00:59:57.350Z,10.44
2022-10-01T01:02:59.640Z,10.40
2022-10-01T01:06:01.744Z,10.42
2022-10-01T01:09:04.310Z,10.45
2022-10-01T01:12:31.869Z,10.41
2022-10-01T01:15:38.955Z,10.34
2022-10-01T01:18:47.913Z,10.43
2022-10-01T01:21:55.407Z,10.43
2022-10-01T01:25:07.720Z,10.38
2022-10-01T01:28:26.774Z,10.36
2022-10-01T01:31:39.703Z,10.22
2022-10-01T01:34:45.553Z,10.24
2022-10-01T01:37:52.197Z,10.28
2022-10-01T01:40:57.973Z,10.26
2022-10-01T01:44:02.332Z,10.25
2022-10-01T01:47:07.444Z,10.21
2022-10-01T01:50:10.937Z,10.22
2022-10-01T01:53:15.167Z,10.11
2022-10-01T01:56:17.672Z,10.13
2022-10-01T01:59:20.518Z,10.07
2022-10-01T02:02:28.616Z,10.01
2022-10-01T02:05:43.250Z,10.03
2022-10-01T02:08:53.656Z,10.02
2022-10-01T02:12:26.628Z,9.99
2022-10-01T02:15:55.210Z,10.00
2022-10-01T02:19:05.713Z,10.04
2022-10-01T02:22:20.100Z,10.03
2022-10-01T02:25:27.010Z,9.95
2022-10-01T02:28:31.787Z,10.00
2022-10-01T02:31:35.158Z,10.00
2022-10-01T02:34:38.532Z,10.00
2022-10-01T02:37:42.832Z,9.91
2022-10-01T02:40:46.455Z,9.82
2022-10-01T02:43:59.338Z,9.87
2022-10-01T02:47:10.867Z,9.87
2022-10-01T02:50:14.175Z,9.91
2022-10-01T02:53:27.597Z,9.91
2022-10-01T02:56:49.539Z,9.90
2022-10-01T03:00:01.184Z,9.89
2022-10-01T03:03:03.753Z,9.86
2022-10-01T03:06:05.983Z,9.83
2022-10-01T03:09:08.844Z,9.78
2022-10-01T03:12:11.080Z,9.79
2022-10-01T03:15:15.912Z,9.84
2022-10-01T03:18:17.919Z,9.85
2022-10-01T03:21:20.188Z,9.89
2022-10-01T03:24:22.648Z,9.85
2022-10-01T03:27:25.009Z,9.84
2022-10-01T03:30:27.129Z,9.82
2022-10-01T03:33:29.738Z,9.72
2022-10-01T03:36:31.904Z,9.71
2022-10-01T03:39:34.495Z,9.67
2022-10-01T03:42:36.577Z,9.62
2022-10-01T03:45:39.418Z,9.58
2022-10-01T03:48:41.502Z,9.52
2022-10-01T03:51:45.171Z,9.45
2022-10-01T03:54:47.395Z,9.38
2022-10-01T03:57:50.204Z,9.24
2022-10-01T04:00:54.341Z,9.17
2022-10-01T04:03:56.685Z,9.08
2022-10-01T04:06:58.714Z,9.02
2022-10-01T04:10:00.967Z,8.92
2022-10-01T04:13:03.154Z,8.83
2022-10-01T04:16:06.895Z,8.72
2022-10-01T04:19:09.135Z,8.64
2022-10-01T04:22:11.499Z,8.47
2022-10-01T04:25:13.997Z,8.38
2022-10-01T04:28:16.629Z,8.30
2022-10-01T04:31:24.797Z,8.25
2022-10-01T04:34:47.093Z,8.10
2022-10-01T04:38:03.584Z,8.04
2022-10-01T04:41:06.105Z,7.97
2022-10-01T04:44:08.141Z,7.89
2022-10-01T04:47:10.436Z,7.88
2022-10-01T04:50:12.574Z,7.78
2022-10-01T04:53:15.077Z,7.71
2022-10-01T04:56:17.135Z,7.63
2022-10-01T04:59:19.417Z,7.46
2022-10-01T05:02:21.624Z,7.44
2022-10-01T05:05:25.216Z,7.46
2022-10-01T05:08:27.223Z,7.36
2022-10-01T05:11:29.805Z,7.38
2022-10-01T05:14:32.877Z,7.39
2022-10-01T05:17:36.373Z,7.37
2022-10-01T05:20:38.470Z,7.33
2022-10-01T05:23:40.895Z,7.25
2022-10-01T05:26:42.937Z,7.18
2022-10-01T05:29:46.220Z,7.28
2022-10-01T05:32:56.473Z,7.33
2022-10-01T05:35:59.087Z,7.29
2022-10-01T05:39:01.827Z,7.28
2022-10-01T05:42:06.511Z,7.30
2022-10-01T05:45:09.762Z,7.31
2022-10-01T05:48:12.894Z,7.26
2022-10-01T05:51:16.221Z,7.33
2022-10-01T05:54:19.563Z,7.35
2022-10-01T05:57:21.787Z,7.42
2022-10-01T06:00:24.806Z,7.45
2022-10-01T06:03:30.126Z,7.43
2022-10-01T06:06:32.460Z,7.41
2022-10-01T06:09:34.501Z,7.46
2022-10-01T06:12:36.821Z,7.52
2022-10-01T06:15:39.099Z,7.50
2022-10-01T06:18:42.102Z,7.60
2022-10-01T06:21:44.149Z,7.66
2022-10-01T06:24:46.610Z,7.75
2022-10-01T06:27:58.054Z,7.78
2022-10-01T06:31:03.933Z,7.85
2022-10-01T06:34:06.093Z,7.97
2022-10-01T06:37:08.286Z,8.09
2022-10-01T06:40:10.580Z,8.18
2022-10-01T06:43:12.823Z,8.36
2022-10-01T06:46:15.055Z,8.40
2022-10-01T06:49:20.592Z,8.51
2022-10-01T06:52:41.117Z,8.62
2022-10-01T06:55:44.247Z,8.74
2022-10-01T06:58:46.635Z,8.83
2022-10-01T07:01:54.181Z,8.89
2022-10-01T07:04:59.398Z,9.12
2022-10-01T07:08:02.023Z,9.25
2022-10-01T07:11:05.490Z,9.37
2022-10-01T07:14:08.443Z,9.55
2022-10-01T07:17:10.652Z,9.77
2022-10-01T07:20:14.864Z,9.94
2022-10-01T07:23:17.457Z,10.39
2022-10-01T07:26:19.869Z,10.43
2022-10-01T07:29:24.002Z,10.73
2022-10-01T07:32:26.429Z,10.99
2022-10-01T07:35:29.749Z,11.09
2022-10-01T07:38:33.529Z,11.26
2022-10-01T07:41:35.916Z,11.38
2022-10-01T07:44:38.723Z,11.67
2022-10-01T07:47:42.090Z,11.70
2022-10-01T07:50:45.550Z,11.89
2022-10-01T07:53:47.883Z,12.01
2022-10-01T07:56:53.061Z,12.16
2022-10-01T07:59:56.123Z,12.34
2022-10-01T08:02:58.810Z,12.52
2022-10-01T08:06:03.438Z,12.81
2022-10-01T08:09:06.322Z,12.99
2022-10-01T08:12:08.447Z,13.24
2022-10-01T08:15:12.339Z,13.51
2022-10-01T08:18:14.956Z,13.48
2022-10-01T08:21:18.104Z,13.75
2022-10-01T08:24:20.464Z,13.83
2022-10-01T08:27:26.579Z,13.87
2022-10-01T08:30:29.720Z,14.18
2022-10-01T08:33:31.957Z,14.49
2022-10-01T08:36:35.785Z,14.80
2022-10-01T08:39:38.034Z,14.71
2022-10-01T08:43:07.554Z,14.54
2022-10-01T08:46:18.061Z,14.30
2022-10-01T08:49:32.026Z,14.62
2022-10-01T08:52:38.592Z,14.87
2022-10-01T08:55:41.642Z,14.79
2022-10-01T08:58:45.834Z,14.83
2022-10-01T09:01:48.568Z,15.09
2022-10-01T09:05:01.238Z,15.18
2022-10-01T09:08:43.834Z,15.63
2022-10-01T09:12:02.137Z,15.67
2022-10-01T09:15:41.963Z,15.70
2022-10-01T09:19:10.944Z,15.55
2022-10-01T09:22:26.105Z,15.66
2022-10-01T09:25:28.873Z,15.76
2022-10-01T09:28:33.630Z,15.67
2022-10-01T09:31:41.152Z,15.70
2022-10-01T09:34:44.921Z,15.99
2022-10-01T09:38:00.789Z,16.44
2022-10-01T09:41:03.788Z,16.49
2022-10-01T09:44:09.125Z,16.42
2022-10-01T09:47:17.844Z,16.33
2022-10-01T09:50:33.359Z,15.97
2022-10-01T09:53:41.510Z,16.03
2022-10-01T09:56:53.780Z,15.80
2022-10-01T10:00:11.993Z,15.92
2022-10-01T10:03:33.303Z,15.60
2022-10-01T10:06:35.860Z,15.69
2022-10-01T10:09:38.496Z,15.57
2022-10-01T10:12:42.080Z,15.24
2022-10-01T10:15:57.615Z,15.25
2022-10-01T10:19:10.627Z,15.53
2022-10-01T10:22:24.948Z,16.01
2022-10-01T10:25:27.517Z,16.44
2022-10-01T10:28:43.665Z,16.35
2022-10-01T10:31:46.818Z,15.91
2022-10-01T10:34:49.619Z,15.87
2022-10-01T10:37:57.232Z,15.83
2022-10-01T10:41:00.358Z,15.70
2022-10-01T10:44:06.451Z,15.59
2022-10-01T10:47:15.076Z,15.60
2022-10-01T10:50:30.001Z,15.82
2022-10-01T10:53:46.400Z,16.36
2022-10-01T10:56:57.915Z,16.85
2022-10-01T11:00:02.074Z,17.05
2022-10-01T11:03:06.408Z,17.35
2022-10-01T11:06:14.813Z,17.24
2022-10-01T11:09:18.629Z,16.92
2022-10-01T11:12:58.545Z,16.76
2022-10-01T11:16:26.715Z,16.60
2022-10-01T11:20:07.767Z,16.65
2022-10-01T11:23:16.103Z,16.72
2022-10-01T11:26:38.157Z,16.62
2022-10-01T11:30:18.026Z,16.60
2022-10-01T11:33:35.385Z,16.46
2022-10-01T11:36:45.917Z,16.37
2022-10-01T11:39:52.096Z,16.05
2022-10-01T11:42:59.695Z,16.13
2022-10-01T11:46:11.392Z,16.47
2022-10-01T11:49:30.886Z,16.88
2022-10-01T11:52:39.054Z,16.63
2022-10-01T11:56:00.080Z,16.99
2022-10-01T11:59:10.093Z,17.09
2022-10-01T12:02:23.923Z,17.05
2022-10-01T12:05:31.509Z,17.07
2022-10-01T12:08:36.787Z,17.18
2022-10-01T12:12:20.279Z,17.14
2022-10-01T12:15:41.753Z,16.70
2022-10-01T12:18:57.102Z,17.02
2022-10-01T12:22:05.509Z,17.19
2022-10-01T12:25:13.244Z,16.85
2022-10-01T12:28:27.751Z,16.70
2022-10-01T12:32:10.068Z,16.56
2022-10-01T12:35:17.838Z,16.68
2022-10-01T12:38:51.582Z,16.47
2022-10-01T12:42:31.425Z,16.49
2022-10-01T12:45:56.528Z,16.38
2022-10-01T12:49:38.411Z,16.44
2022-10-01T12:53:00.546Z,16.37
2022-10-01T12:56:07.315Z,16.39
2022-10-01T12:59:41.056Z,16.55
2022-10-01T13:03:14.117Z,16.61
2022-10-01T13:06:32.890Z,16.47
2022-10-01T13:10:04.359Z,16.49
2022-10-01T13:13:12.962Z,16.34
2022-10-01T13:16:18.485Z,16.18
2022-10-01T13:19:37.652Z,16.08
2022-10-01T13:23:10.760Z,15.91
2022-10-01T13:26:32.819Z,15.82
2022-10-01T13:29:43.784Z,15.75
2022-10-01T13:32:54.330Z,15.62
2022-10-01T13:35:59.234Z,15.58
2022-10-01T13:39:02.099Z,15.40
2022-10-01T13:42:05.631Z,15.39
2022-10-01T13:45:40.949Z,15.44
2022-10-01T13:48:48.144Z,15.35
2022-10-01T13:51:52.127Z,15.41
2022-10-01T13:54:55.983Z,15.45
2022-10-01T13:58:35.860Z,15.36
2022-10-01T14:01:42.285Z,15.47
2022-10-01T14:04:45.787Z,15.41
2022-10-01T14:07:50.821Z,15.51
2022-10-01T14:11:19.180Z,15.44
2022-10-01T14:14:47.798Z,15.52
2022-10-01T14:17:53.283Z,15.32
2022-10-01T14:20:55.301Z,15.27
2022-10-01T14:24:19.852Z,15.20
2022-10-01T14:27:48.329Z,15.14
2022-10-01T14:31:06.382Z,15.06
2022-10-01T14:34:11.648Z,15.13
2022-10-01T14:37:17.608Z,15.01
2022-10-01T14:40:22.544Z,15.07
2022-10-01T14:43:30.593Z,15.06
2022-10-01T14:46:36.165Z,15.05
2022-10-01T14:49:39.101Z,15.06
2022-10-01T14:52:47.152Z,15.10
2022-10-01T14:55:53.091Z,14.99
2022-10-01T14:59:01.882Z,15.10
2022-10-01T15:02:17.829Z,14.75
2022-10-01T15:05:42.480Z,14.88
2022-10-01T15:08:47.994Z,14.86
2022-10-01T15:11:51.500Z,14.87
2022-10-01T15:14:54.626Z,14.70
2022-10-01T15:17:56.747Z,14.71
2022-10-01T15:21:02.565Z,14.62
2022-10-01T15:24:06.774Z,14.54
2022-10-01T15:27:11.765Z,14.56
2022-10-01T15:30:15.679Z,14.52
2022-10-01T15:33:29.545Z,14.51
2022-10-01T15:36:32.291Z,14.55
2022-10-01T15:39:39.807Z,14.55
2022-10-01T15:43:07.593Z,14.57
2022-10-01T15:46:15.752Z,14.60
2022-10-01T15:49:25.009Z,14.59
2022-10-01T15:52:46.368Z,14.57
2022-10-01T15:55:53.519Z,14.51
2022-10-01T15:59:01.510Z,14.36
2022-10-01T16:02:09.251Z,14.14
2022-10-01T16:05:17.588Z,14.06
2022-10-01T16:08:22.113Z,13.96
2022-10-01T16:11:27.739Z,13.92
2022-10-01T16:14:39.373Z,13.92
2022-10-01T16:17:54.504Z,13.84
2022-10-01T16:20:56.948Z,13.73
2022-10-01T16:23:59.289Z,13.70
2022-10-01T16:27:02.136Z,13.64
2022-10-01T16:30:07.531Z,13.76
2022-10-01T16:33:11.024Z,13.65
2022-10-01T16:36:19.855Z,13.70
2022-10-01T16:39:23.179Z,13.72
2022-10-01T16:42:26.000Z,13.57
2022-10-01T16:45:34.210Z,13.66
2022-10-01T16:48:36.898Z,13.68
2022-10-01T16:51:40.992Z,13.59
2022-10-01T16:54:44.528Z,13.48
2022-10-01T16:57:46.586Z,13.46
2022-10-01T17:00:49.364Z,13.34
2022-10-01T17:03:51.529Z,13.43
2022-10-01T17:06:53.916Z,13.43
2022-10-01T17:09:55.954Z,13.37
2022-10-01T17:12:59.690Z,13.42
2022-10-01T17:16:02.474Z,13.40
2022-10-01T17:19:05.022Z,13.21
2022-10-01T17:22:08.085Z,13.29
2022-10-01T17:25:18.913Z,13.34
2022-10-01T17:28:21.153Z,13.31
2022-10-01T17:31:23.610Z,13.29
2022-10-01T17:34:26.142Z,13.30
2022-10-01T17:37:28.416Z,13.31
2022-10-01T17:40:30.477Z,13.29
2022-10-01T17:43:32.897Z,13.24
2022-10-01T17:46:35.238Z,13.17
2022-10-01T17:49:37.844Z,13.21
2022-10-01T17:52:40.020Z,13.15
2022-10-01T17:55:42.745Z,13.07
2022-10-01T17:58:46.260Z,13.13
2022-10-01T18:01:49.351Z,13.03
2022-10-01T18:04:51.597Z,12.98
2022-10-01T18:07:53.996Z,12.97
2022-10-01T18:11:10.983Z,12.97
2022-10-01T18:14:13.628Z,12.97
2022-10-01T18:17:16.178Z,12.98
2022-10-01T18:20:22.515Z,12.97
2022-10-01T18:23:24.759Z,12.97
2022-10-01T18:26:27.519Z,12.97
2022-10-01T18:29:29.686Z,12.92
2022-10-01T18:32:37.789Z,12.89
2022-10-01T18:35:43.769Z,12.85
2022-10-01T18:38:51.094Z,12.82
2022-10-01T18:41:53.434Z,12.81
2022-10-01T18:44:57.968Z,12.75
2022-10-01T18:48:21.714Z,12.70
2022-10-01T18:51:52.334Z,12.64
2022-10-01T18:55:21.311Z,12.59
2022-10-01T18:58:42.384Z,12.52
2022-10-01T19:02:11.470Z,12.48
2022-10-01T19:05:19.713Z,12.42
2022-10-01T19:08:37.559Z,12.40
2022-10-01T19:11:44.878Z,12.35
2022-10-01T19:15:18.433Z,12.32
2022-10-01T19:18:20.692Z,12.29
2022-10-01T19:21:53.820Z,12.20
2022-10-01T19:25:33.884Z,12.19
2022-10-01T19:32:44.048Z,12.06
2022-10-01T19:35:50.573Z,12.03
2022-10-01T19:38:55.276Z,11.98
2022-10-01T19:42:21.301Z,11.97
2022-10-01T19:45:26.951Z,11.93
2022-10-01T19:48:53.235Z,11.91
2022-10-01T19:52:05.406Z,11.92
2022-10-01T19:55:15.962Z,11.91
2022-10-01T19:58:20.094Z,11.87
2022-10-01T20:01:25.221Z,11.83
2022-10-01T20:04:38.134Z,11.86
2022-10-01T20:08:06.385Z,11.86
2022-10-01T20:11:27.195Z,11.84
2022-10-01T20:14:51.105Z,11.77
2022-10-01T20:18:17.687Z,11.75
2022-10-01T20:21:35.876Z,11.76
2022-10-01T20:24:40.532Z,11.70
2022-10-01T20:27:55.012Z,11.69
2022-10-01T20:31:11.188Z,11.59
2022-10-01T20:34:27.587Z,11.44
2022-10-01T20:37:53.039Z,11.43
2022-10-01T20:40:57.699Z,11.41
2022-10-01T20:44:02.114Z,11.40
2022-10-01T20:47:37.426Z,11.46
2022-10-01T20:50:45.687Z,11.43
2022-10-01T20:54:07.403Z,11.43
2022-10-01T20:57:42.809Z,11.44
2022-10-01T21:00:46.371Z,11.40
2022-10-01T21:03:54.087Z,11.17
2022-10-01T21:07:02.383Z,11.12
2022-10-01T21:10:44.962Z,11.02
2022-10-01T21:14:03.695Z,11.05
2022-10-01T21:17:28.018Z,11.19
2022-10-01T21:20:54.632Z,11.22
2022-10-01T21:24:15.412Z,11.29
2022-10-01T21:27:17.887Z,11.31
2022-10-01T21:30:21.516Z,11.41
2022-10-01T21:33:54.266Z,11.51
2022-10-01T21:37:05.565Z,11.51
2022-10-01T21:40:22.771Z,11.47
2022-10-01T21:43:37.146Z,11.54
2022-10-01T21:46:58.951Z,11.61
2022-10-01T21:50:22.727Z,11.62
2022-10-01T21:53:37.968Z,11.65
2022-10-01T21:56:43.232Z,11.65
2022-10-01T22:00:13.311Z,11.65
2022-10-01T22:03:55.367Z,11.69
2022-10-01T22:07:25.540Z,11.68
2022-10-01T22:10:36.742Z,11.67
2022-10-01T22:13:52.335Z,11.64
2022-10-01T22:16:58.489Z,11.64
2022-10-01T22:20:03.528Z,11.64
2022-10-01T22:23:11.272Z,11.62
2022-10-01T22:26:17.728Z,11.54
2022-10-01T22:29:25.549Z,11.64
2022-10-01T22:32:31.871Z,11.66
2022-10-01T22:35:45.982Z,11.59
2022-10-01T22:38:57.347Z,11.55
2022-10-01T22:42:07.517Z,11.53
2022-10-01T22:45:13.762Z,11.60
2022-10-01T22:48:21.991Z,11.62
2022-10-01T22:51:44.142Z,11.59
2022-10-01T22:55:11.215Z,11.53
2022-10-01T22:58:32.332Z,11.43
2022-10-01T23:02:03.757Z,11.37
2022-10-01T23:05:44.659Z,11.42
2022-10-01T23:09:07.785Z,11.36
2022-10-01T23:12:35.167Z,11.26
2022-10-01T23:15:40.302Z,11.35
2022-10-01T23:18:53.786Z,11.39
2022-10-01T23:22:14.725Z,11.35
2022-10-01T23:25:57.922Z,11.33
2022-10-01T23:29:40.453Z,11.23
2022-10-01T23:32:45.615Z,11.21
2022-10-01T23:36:05.955Z,11.26
2022-10-01T23:39:26.467Z,11.18
2022-10-01T23:42:35.053Z,11.09
2022-10-01T23:45:44.649Z,11.08
2022-10-01T23:48:53.588Z,11.00
2022-10-01T23:51:59.688Z,11.03
2022-10-01T23:55:32.946Z,11.05
2022-10-01T23:58:40.925Z,10.96
